Time;durP1;ratioP1;P1;durP2;ratioP2;P2;SDS_P1;SDS_P2;PMS_P1;PMS_P2;Temp;Humidity;BMP_temperature;BMP_pressure;BME280_temperature;BME280_humidity;BME280_pressure;Samples;Min_cycle;Max_cycle;Signal;HPM_P1;HPM_P2
2022/04/01 00:02:39;;;;;;;7.90;5.97;;;13.50;76.20;;;;;;10946402;32;20057;-71
2022/04/01 00:08:41;;;;;;;9.98;6.12;;;13.40;76.50;;;;;;10946300;32;20061;-71
2022/04/01 00:14:43;;;;;;;8.93;5.05;;;13.30;76.40;;;;;;10941684;32;20038;-71
2022/04/01 00:20:45;;;;;;;7.43;5.57;;;13.30;76.40;;;;;;10945618;32;20062;-71
2022/04/01 00:26:47;;;;;;;8.75;5.50;;;13.20;76.70;;;;;;10945513;32;20027;-71
2022/04/01 00:32:50;;;;;;;7.43;5.53;;;12.90;76.90;;;;;;10942280;32;20031;-71
2022/04/01 00:38:52;;;;;;;7.78;5.37;;;12.80;77.10;;;;;;10945057;32;20027;-71
2022/04/01 00:44:54;;;;;;;8.73;6.43;;;12.70;77.30;;;;;;10945024;32;20374;-71
2022/04/01 00:50:56;;;;;;;8.85;5.32;;;12.80;77.20;;;;;;10944784;32;20351;-71
2022/04/01 00:56:59;;;;;;;7.75;4.95;;;12.70;77.20;;;;;;10944449;32;20031;-71
2022/04/01 01:03:01;;;;;;;6.43;4.43;;;12.70;77.30;;;;;;10944222;32;20297;-71
2022/04/01 01:09:04;;;;;;;11.30;5.72;;;12.70;77.40;;;;;;10943967;32;20028;-71
2022/04/01 01:15:10;;;;;;;9.50;6.78;;;12.60;77.40;;;;;;10943658;32;20053;-71
2022/04/01 01:21:12;;;;;;;10.40;8.45;;;12.80;77.50;;;;;;10930051;32;20061;-71
2022/04/01 01:27:14;;;;;;;11.77;9.40;;;12.80;77.40;;;;;;10943445;32;20103;-71
2022/04/01 01:33:20;;;;;;;7.47;5.75;;;12.70;78.00;;;;;;10938857;32;20045;-71
2022/04/01 01:39:22;;;;;;;8.13;6.12;;;12.70;77.90;;;;;;10942903;32;20061;-71
2022/04/01 01:45:24;;;;;;;9.88;8.00;;;12.80;77.90;;;;;;10942774;32;20058;-71
2022/04/01 01:57:47;;;;;;;6.93;5.12;;;13.20;77.40;;;;;;10942395;32;20062;-71
2022/04/01 02:03:51;;;;;;;8.93;7.07;;;13.00;77.30;;;;;;10928587;32;20342;-71
2022/04/01 02:09:53;;;;;;;8.88;6.95;;;13.10;77.50;;;;;;10942154;32;20026;-71
2022/04/01 02:15:56;;;;;;;8.48;6.05;;;13.10;77.50;;;;;;10941916;32;20039;-71
2022/04/01 02:22:01;;;;;;;9.13;6.95;;;13.10;77.50;;;;;;10941674;32;20027;-71
2022/04/01 02:28:05;;;;;;;10.25;6.30;;;13.20;77.40;;;;;;10941608;32;20058;-71
2022/04/01 02:34:07;;;;;;;6.70;5.75;;;13.20;77.50;;;;;;10928047;32;20027;-71
2022/04/01 02:40:36;;;;;;;9.10;7.20;;;13.20;77.30;;;;;;10941803;32;20035;-71
2022/04/01 02:46:44;;;;;;;7.68;5.97;;;13.20;77.40;;;;;;10941348;32;20046;-71
2022/04/01 02:53:05;;;;;;;8.13;6.25;;;13.20;77.40;;;;;;10941203;32;20027;-71
2022/04/01 02:59:08;;;;;;;6.22;3.97;;;13.20;77.50;;;;;;10941143;32;20045;-71
2022/04/01 03:05:10;;;;;;;8.57;6.37;;;13.10;77.40;;;;;;10940893;32;20058;-71
2022/04/01 03:11:12;;;;;;;8.57;6.32;;;13.20;77.50;;;;;;10940825;32;20073;-71
2022/04/01 03:17:15;;;;;;;7.50;5.82;;;13.20;77.60;;;;;;10945132;32;20070;-71
2022/04/01 03:23:17;;;;;;;9.75;5.12;;;13.20;77.50;;;;;;10947795;32;20080;-71
2022/04/01 03:29:20;;;;;;;8.15;6.90;;;13.10;77.30;;;;;;10943293;32;20057;-71
2022/04/01 03:35:24;;;;;;;15.43;5.85;;;13.10;77.40;;;;;;10933468;32;20027;-71
2022/04/01 03:41:26;;;;;;;7.97;6.07;;;13.10;77.30;;;;;;10947054;32;20430;-71
2022/04/01 03:47:40;;;;;;;8.45;6.60;;;13.20;77.30;;;;;;10946924;32;20049;-71
2022/04/01 03:53:54;;;;;;;8.32;6.53;;;13.20;77.30;;;;;;10946853;32;20022;-71
2022/04/01 03:59:57;;;;;;;7.00;5.45;;;13.10;77.30;;;;;;10943851;32;20308;-71
2022/04/01 04:06:02;;;;;;;6.47;4.45;;;13.10;77.40;;;;;;10946322;32;20031;-71
2022/04/01 04:12:07;;;;;;;12.48;9.02;;;12.90;77.50;;;;;;10942225;32;20026;-71
2022/04/01 04:18:14;;;;;;;11.25;8.50;;;13.00;77.60;;;;;;10945838;32;20031;-71
2022/04/01 04:24:43;;;;;;;11.52;8.95;;;12.90;77.60;;;;;;10945662;32;20042;-71
2022/04/01 04:30:54;;;;;;;8.98;6.87;;;12.80;77.70;;;;;;10945518;32;20062;-71
2022/04/01 04:37:08;;;;;;;10.20;7.80;;;12.80;77.90;;;;;;10945201;32;20027;-71
2022/04/01 04:43:18;;;;;;;9.15;6.70;;;12.80;77.90;;;;;;10945057;32;20053;-71
2022/04/01 04:49:21;;;;;;;10.02;6.78;;;12.80;78.10;;;;;;10944804;32;20061;-71
2022/04/01 04:55:24;;;;;;;8.00;6.75;;;12.80;77.80;;;;;;10944612;32;20057;-71
2022/04/01 05:01:46;;;;;;;12.23;10.13;;;12.90;77.80;;;;;;10944388;32;20022;-71
2022/04/01 05:08:18;;;;;;;8.77;6.22;;;13.00;77.60;;;;;;10944241;32;20343;-71
2022/04/01 05:14:35;;;;;;;8.88;6.95;;;13.00;77.40;;;;;;10751652;33;20036;-71
2022/04/01 05:20:40;;;;;;;9.82;6.20;;;13.20;77.30;;;;;;10753980;33;20353;-71
2022/04/01 05:26:45;;;;;;;13.70;6.68;;;13.30;77.10;;;;;;10753473;33;20025;-71
2022/04/01 05:33:09;;;;;;;7.87;5.00;;;13.40;76.80;;;;;;10753782;33;20051;-71
2022/04/01 05:39:12;;;;;;;9.10;6.90;;;13.50;76.80;;;;;;10753580;33;20069;-71
2022/04/01 05:45:17;;;;;;;11.57;8.10;;;13.70;76.60;;;;;;10750303;33;20103;-71
2022/04/01 05:51:20;;;;;;;7.97;6.00;;;13.90;76.30;;;;;;10902568;32;20019;-71
2022/04/01 05:57:25;;;;;;;12.23;9.50;;;13.80;76.40;;;;;;10942405;32;20027;-71
2022/04/01 06:03:59;;;;;;;8.77;7.30;;;13.90;76.20;;;;;;10924209;32;20035;-71
2022/04/01 06:10:05;;;;;;;10.35;7.28;;;13.90;76.50;;;;;;10935562;32;20407;-71
2022/04/01 06:16:25;;;;;;;13.60;6.40;;;14.10;76.10;;;;;;10927236;32;20050;-70
2022/04/01 06:22:33;;;;;;;9.80;8.02;;;14.10;76.00;;;;;;10941187;32;20105;-70
2022/04/01 06:28:48;;;;;;;11.18;7.75;;;14.20;75.80;;;;;;10937639;32;20080;-70
2022/04/01 06:35:04;;;;;;;12.18;8.48;;;14.30;75.70;;;;;;10936277;32;20073;-70
2022/04/01 06:41:25;;;;;;;11.98;9.85;;;14.50;75.50;;;;;;10939946;32;20053;-70
2022/04/01 06:47:28;;;;;;;8.98;6.75;;;14.50;75.30;;;;;;10927990;32;20395;-70
2022/04/01 06:53:31;;;;;;;13.85;11.10;;;14.50;75.40;;;;;;10947970;32;20026;-70
2022/04/01 06:59:37;;;;;;;12.32;8.95;;;14.40;75.60;;;;;;10948628;32;20038;-70
2022/04/01 07:05:39;;;;;;;11.27;7.03;;;14.40;75.90;;;;;;10947742;32;20027;-70
2022/04/01 07:11:41;;;;;;;13.88;8.32;;;14.50;76.10;;;;;;10948129;32;20023;-70
2022/04/01 07:17:43;;;;;;;12.77;9.10;;;14.60;75.90;;;;;;10389924;32;17066040;-70
2022/04/01 07:23:46;;;;;;;13.00;11.23;;;14.60;75.80;;;;;;10795790;33;20378;-70
2022/04/01 07:29:48;;;;;;;22.90;15.07;;;14.40;76.30;;;;;;10795297;33;20059;-70
2022/04/01 07:35:50;;;;;;;15.75;10.05;;;14.30;76.60;;;;;;10794203;33;20051;-70
2022/04/01 07:41:57;;;;;;;13.35;8.77;;;14.40;76.80;;;;;;10794831;33;20412;-70
2022/04/01 07:48:00;;;;;;;13.70;11.25;;;14.50;76.70;;;;;;10895759;32;20312;-71
2022/04/01 07:54:03;;;;;;;21.92;13.90;;;14.30;76.70;;;;;;10895933;32;20054;-71
2022/04/01 08:00:07;;;;;;;10.85;7.65;;;14.20;77.30;;;;;;10894899;32;20055;-71
2022/04/01 08:06:14;;;;;;;16.62;11.50;;;14.10;77.60;;;;;;10907057;32;20046;-70
2022/04/01 08:12:16;;;;;;;10.45;8.35;;;14.10;77.70;;;;;;10908468;32;20015;-71
2022/04/01 08:18:19;;;;;;;8.52;6.68;;;14.20;77.70;;;;;;10906518;32;20422;-71
2022/04/01 08:24:22;;;;;;;11.07;8.63;;;14.10;77.70;;;;;;10902624;32;20027;-71
2022/04/01 08:30:24;;;;;;;10.07;6.82;;;14.00;78.00;;;;;;10907643;32;20015;-71
2022/04/01 08:36:26;;;;;;;10.30;7.95;;;14.20;78.30;;;;;;10907579;32;20031;-71
2022/04/01 08:42:52;;;;;;;8.27;5.47;;;14.30;77.90;;;;;;10891517;32;20049;-71
2022/04/01 08:48:54;;;;;;;15.27;8.98;;;14.20;78.00;;;;;;10905090;32;20339;-71
2022/04/01 08:55:03;;;;;;;13.05;7.87;;;14.30;78.20;;;;;;10903532;32;20050;-70
2022/04/01 09:01:06;;;;;;;22.52;11.35;;;14.30;78.20;;;;;;10902345;32;20062;-71
2022/04/01 09:07:10;;;;;;;14.65;10.30;;;14.30;78.30;;;;;;10906539;32;20038;-71
2022/04/01 09:13:12;;;;;;;18.00;10.93;;;14.20;78.40;;;;;;10887878;32;20027;-70
2022/04/01 09:19:14;;;;;;;10.77;7.53;;;14.20;78.60;;;;;;10892405;32;20019;-70
2022/04/01 09:25:19;;;;;;;14.13;7.97;;;14.10;78.60;;;;;;10905517;32;20049;-70
2022/04/01 09:31:22;;;;;;;10.07;5.87;;;14.10;78.70;;;;;;10905200;32;20026;-72
2022/04/01 09:37:43;;;;;;;9.00;5.37;;;14.20;78.50;;;;;;10905220;32;20027;-71
2022/04/01 09:44:18;;;;;;;10.13;7.45;;;14.20;78.20;;;;;;10904519;32;20051;-73
2022/04/01 09:50:29;;;;;;;17.90;11.00;;;14.30;78.40;;;;;;10772696;33;20039;-71
2022/04/01 09:56:45;;;;;;;13.65;10.18;;;14.50;78.10;;;;;;10752902;33;20144;-71
2022/04/01 10:02:47;;;;;;;17.42;13.00;;;14.60;77.60;;;;;;10753563;33;20055;-71
2022/04/01 10:08:54;;;;;;;13.18;10.07;;;14.50;77.70;;;;;;10753828;33;20047;-70
2022/04/01 10:15:00;;;;;;;14.75;11.20;;;14.40;77.80;;;;;;10753621;33;20094;-70
2022/04/01 10:21:04;;;;;;;14.20;10.60;;;14.40;78.20;;;;;;10849060;32;20070;-71
2022/04/01 10:27:32;;;;;;;13.25;8.57;;;14.50;78.30;;;;;;10866661;32;20067;-71
2022/04/01 10:33:38;;;;;;;16.60;10.88;;;14.70;78.00;;;;;;10875889;32;20023;-70
2022/04/01 10:39:58;;;;;;;18.62;12.18;;;14.90;77.70;;;;;;10865326;32;20073;-71
2022/04/01 10:46:13;;;;;;;12.15;6.85;;;15.20;77.10;;;;;;10902638;32;20023;-70
2022/04/01 10:52:15;;;;;;;16.87;12.23;;;15.50;76.60;;;;;;10903502;32;20069;-70
2022/04/01 10:58:17;;;;;;;12.43;8.32;;;15.70;76.10;;;;;;10901184;32;20441;-71
2022/04/01 11:04:20;;;;;;;15.30;10.07;;;15.70;75.60;;;;;;10889996;32;20023;-71
2022/04/01 11:10:32;;;;;;;11.93;7.50;;;15.80;75.60;;;;;;10878326;32;20043;-70
2022/04/01 11:16:49;;;;;;;15.07;8.80;;;16.10;74.90;;;;;;10860035;32;20032;-71
2022/04/01 11:22:59;;;;;;;8.95;5.30;;;16.30;73.70;;;;;;10852231;32;20024;-73
2022/04/01 11:29:01;;;;;;;12.20;5.28;;;16.40;73.90;;;;;;10865785;32;20057;-71
2022/04/01 11:35:08;;;;;;;12.88;7.75;;;16.30;74.50;;;;;;10866332;32;20040;-71
2022/04/01 11:41:10;;;;;;;11.40;6.70;;;16.20;74.80;;;;;;10868029;32;20031;-71
2022/04/01 11:47:12;;;;;;;10.60;7.18;;;16.20;74.90;;;;;;10872122;32;20054;-72
2022/04/01 11:53:29;;;;;;;16.95;9.00;;;16.20;74.90;;;;;;10871986;32;20023;-72
2022/04/01 11:59:33;;;;;;;10.85;8.23;;;16.00;75.30;;;;;;10870439;32;20058;-71
2022/04/01 12:05:36;;;;;;;12.75;9.48;;;15.80;76.00;;;;;;10867337;32;20433;-72
2022/04/01 12:11:45;;;;;;;16.08;10.25;;;15.50;76.40;;;;;;10871287;32;20031;-71
2022/04/01 12:17:48;;;;;;;;;;;15.20;77.20;;;;;;10871050;32;20050;-71
2022/04/01 12:23:51;;;;;;;11.57;10.15;;;15.00;78.10;;;;;;10870896;32;20287;-71
2022/04/01 12:30:39;;;;;;;11.40;7.45;;;14.90;78.60;;;;;;10866331;32;20019;-71
2022/04/01 12:36:41;;;;;;;14.73;12.50;;;15.00;78.70;;;;;;10867373;32;20032;-72
2022/04/01 12:42:48;;;;;;;12.00;9.93;;;15.20;78.40;;;;;;10856898;32;20023;-72
2022/04/01 12:49:25;;;;;;;9.00;5.65;;;15.20;78.40;;;;;;10867831;32;20046;-71
2022/04/01 12:55:28;;;;;;;11.43;7.32;;;15.20;77.90;;;;;;10724483;33;20439;-73
2022/04/01 13:01:45;;;;;;;18.40;14.13;;;15.10;78.10;;;;;;10720055;33;20028;-72
